Flight Track Log - Related Links

Times and Time Zones

All times are in EDT time to prevent confusion due to time zone crossing. See the EJA122 flight status page for this flight to view local times or setup timezone preferences in your user account.

Time Position Orientation Groundspeed Altitude Reporting Facility
EDT Latitude Longitude Course Direction KTS km/h feet Rate Location/Type
Tue 12h57:40 42.2036 -83.3556 205° Southwest 175 323 1.400  Level Cleveland Center
Tue 12h58:17 42.1742 -83.3739 205° Southwest 205 380 2.800 2.388 Climbing Cleveland Center
Tue 12h59:18 42.1114 -83.3767 182° South 243 451 5.300 2.422 Climbing Cleveland Center
Tue 13h00:58 41.9939 -83.3267 162° South 298 552 9.300 2.400 Climbing Cleveland Center
Tue 13h01:58 41.9125 -83.3289 181° South 298 552 11.700 2.050 Climbing Cleveland Center
Tue 13h02:58 41.8394 -83.3342 183° South 298 552 13.400 1.350 Climbing Cleveland Center
Tue 13h03:58 41.7475 -83.3386 182° South 304 563 14.400 1.000 Climbing Cleveland Center
Tue 13h04:58 41.6494 -83.3428 182° South 337 624 15.400 1.000 Climbing Cleveland Center
Tue 13h05:58 41.5475 -83.3383 178° South 357 661 16.400 1.000 Climbing Cleveland Center
Tue 13h06:58 41.4506 -83.3786 197° South 363 673 17.400 867 Climbing Cleveland Center
Tue 13h08:58 41.2644 -83.4867 204° Southwest 378 700 19.000 857 Climbing Indianapolis Center
Tue 13h10:00 41.1667 -83.5414 203° Southwest 378 700 20.000 976 Climbing Indianapolis Center
Tue 13h11:01 41.0533 -83.6086 189° South 380 703 21.000 488 Climbing Indianapolis Center
Tue 13h12:03 40.9481 -83.6622 201° Southwest 394 729 21.000  Level Indianapolis Center
Tue 13h13:05 40.8378 -83.7033 196° South 406 752 21.000  Level Indianapolis Center
Tue 13h14:07 40.7247 -83.7481 197° South 418 774 21.000 -97 Level Indianapolis Center
Tue 13h15:09 40.6097 -83.7917 196° South 424 785 20.800 -1.269 Descending Indianapolis Center
Tue 13h15:51 40.5197 -83.8250 196° South 431 798 18.800 -2.202 Descending Indianapolis Center
Tue 13h16:58 40.4014 -83.8706 196° South 403 747 16.800 -2.109 Descending Indianapolis Center
Tue 13h17:59 40.2856 -83.9133 196° South 405 750 14.300 -2.508 Descending Indianapolis Center
Tue 13h19:00 40.1828 -83.9531 196° South 379 702 11.700 -2.066 Descending Indianapolis Center
Tue 13h20:01 40.0864 -83.9689 187° South 333 616 10.100 -723 Descending Indianapolis Center
Tue 13h21:21 39.9725 -83.9281 165° South 336 623 10.000  Descending Indianapolis Center
Tue 13h22:09 39.8958 -83.9000 164° South 331 613 10.100  Climbing Indianapolis Center
Tue 13h23:03 39.8144 -83.8722 165° South 329 610 10.000 -783 Descending Indianapolis Center
Tue 13h24:04 39.7367 -83.8506 168° South 266 492 8.600 -1.869 Descending Indianapolis Center
Tue 13h25:05 39.6703 -83.9044 212° Southwest 279 517 6.200 -1.068 Descending Indianapolis Center
Tue 13h26:30 39.5903 -83.9761 215° Southwest 263 488 6.000 -82 Descending Indianapolis Center
Tue 13h27:32 39.5458 -84.0328 225° Southwest 239 443 6.000  Level Indianapolis Center
Tue 13h28:34 39.5036 -84.0961 229° Southwest 231 428 6.000  Level Indianapolis Center
Tue 13h29:36 39.4603 -84.1572 227° Southwest 229 425 6.000  Level Indianapolis Center
Tue 13h30:37 39.4172 -84.2200 228° Southwest 230 426 6.000 -927 Level Indianapolis Center
Tue 13h31:39 39.3753 -84.2808 228° Southwest 229 425 4.100 -1.452 Descending Indianapolis Center
Tue 13h32:41 39.3206 -84.3081 201° Southwest 218 404 3.000 -532 Descending Indianapolis Center
Tue 13h33:43 39.2628 -84.3344 199° South 199 369 3.000 -145 Level Indianapolis Center
Tue 13h34:45 39.2181 -84.3572 202° Southwest 183 340 2.700 -194 Descending Indianapolis Center
Tue 13h35:47 39.1747 -84.3786 201° Southwest 182 336 2.600 -97 Descending Indianapolis Center

Login

Don't have an account? Register now (free) for customized features, flight alerts, and more!